CAH weather

Cà Mau Airport
Ca Mau City, Ca Mau Province, Vietnam

Public forecast

Using degrees Celsius for public forecast. Weather courtesy of forecast.io.

METAR (pilot weather report)

Closest report is Can Tho International Airport, 63.0 nm (116.7 km) NNE. Retrieved 2019/04/22 02:00 UTC (11 minutes ago):

VVCT 220200Z 09007KT 040V120 9999 BKN015 30/26 Q1009 NOSIG

TAF (pilot weather forecast)

Forecast is more than 12 hours old.

Closest forecast is Can Tho International Airport, 63.0 nm (116.7 km) NNE. Retrieved 2019/04/21 00:00 UTC (1 day ago):

TAF VVCT 212300Z 2200/2224 16008KT 9999 SCT015